No particular awareness of the weather is required.   -   There are no Weather-warnings

Nearby METAR Reports

 

ENZV - Stavanger
Updated: 17/01/2018 06:20
Snow showers, rain, mostly cloudy
Snow showers, rain, mostly cloudy
 Wind from WSW
Wind: WSW 9 km/h
Temperature: 1°C
Wind Chill: -2°C
Dew Point: 0°C
Humidity: 93%
Barometer: 982 hPa
Summary: Snow showers, rain
Clouds: Mostly cloudy
Visibility: 2 km
2018/01/17 05:20 ENZV 170520Z 24005KT 2000 SHSNRA FEW004CB SCT010 BKN015 01/M00 Q0982 TEMPO 1500 SHSNGS VV009
ENBR - Bergen
Updated: 17/01/2018 06:20
Nearby showers, mostly cloudy
Nearby showers, mostly cloudy
 Wind from SE
Wind: SE 15 km/h
Temperature: 0°C
Wind Chill: -4°C
Dew Point: 0°C
Humidity: 100%
Barometer: 980 hPa
Summary: Nearby showers
Clouds: Mostly cloudy
Visibility: 10 km
2018/01/17 05:20 ENBR 170520Z 14008KT 9999 VCSH FEW003 BKN006 00/M00 Q0980 TEMPO 1500 SHSNGS VV008 RMK WIND 1200FT 14013KT
 
ENHD - Haugesund
Updated: 17/01/2018 06:20
Light snow, overcast
Light snow, overcast
 Wind from SSE
Wind: SSE 19 km/h
Temperature: 1°C
Wind Chill: -4°C
Dew Point: 0°C
Humidity: 93%
Barometer: 981 hPa
Summary: Light snow
Clouds: Overcast
Visibility: 10 km
2018/01/17 05:20 ENHD 170520Z AUTO 15010KT 9999 -SN VV011 01/00 Q0981 RERA
ENCN - Kristiansand
Updated: 17/01/2018 06:20
Nearby fog, mostly cloudy
Nearby fog, mostly cloudy
 Wind from ENE
Wind: ENE 6 km/h
Temperature: -1°C
Dew Point: -1°C
Humidity: 100%
Barometer: 982 hPa
Summary: Nearby fog
Clouds: Mostly cloudy
Visibility: 10 km
2018/01/17 05:20 ENCN 170520Z 06003KT 9999 R03/P2000D R21/1500U VCFG FEW009 BKN019 M01/M01 Q0982
 
ENBO - Bodø
Updated: 17/01/2018 06:20
Clear
Clear
 Wind from E
Wind: E 57 km/h, Gust: 76 km/h
Temperature: -2°C
Wind Chill: -12°C
Dew Point: -9°C
Humidity: 59%
Barometer: 989 hPa
Summary: Clear
Visibility: greater than 10 km
2018/01/17 05:20 ENBO 170520Z 09031G41KT CAVOK M02/M09 Q0989 TEMPO 11025KT
ENKR - Kirkenes
Updated: 17/01/2018 06:20
Low drifting snow, partly cloudy
Low drifting snow, partly cloudy
 Wind from S
Wind: S 30 km/h
Temperature: -15°C
Wind Chill: -26°C
Dew Point: -17°C
Humidity: 85%
Barometer: 1006 hPa
Summary: Low drifting snow
Clouds: Partly cloudy
Visibility: 10 km
2018/01/17 05:20 ENKR 170520Z 19016KT 9999 DRSN NSC M15/M17 Q1006 RMK WIND 731FT 20020KT
 
ENVA - Trondheim
Updated: 17/01/2018 06:20
Clear
Clear
 Wind from ENE
Wind: ENE 19 km/h
Temperature: 3°C
Wind Chill: -2°C
Dew Point: -5°C
Humidity: 56%
Barometer: 984 hPa
Summary: Clear
Visibility: greater than 10 km
2018/01/17 05:20 ENVA 170520Z 07010KT 020V100 CAVOK 03/M05 Q0984 RMK WIND 670FT 14012KT
ENGM - Oslo
Updated: 17/01/2018 06:20
Light snow, mostly cloudy
Light snow, mostly cloudy
 Wind from N
Wind: N 4 km/h
Temperature: -1°C
Dew Point: -2°C
Humidity: 93%
Barometer: 982 hPa
Summary: Light snow
Clouds: Mostly cloudy
Visibility: 6 km
2018/01/17 05:20 ENGM 170520Z 35002KT 6000 -SN FEW004 BKN006 M01/M02 Q0982 TEMPO 4000 -SN BKN004